Home > Products > Valid Products > TAF

000
FTUS42 KMLB 281500 AAA
TAFMCO
TAF AMD
KMCO 281521Z 2815/2912 35011KT P6SM SKC
     FM281800 02011KT P6SM FEW035
     FM290000 36007KT P6SM SKC=



000
FTUS42 KMLB 281100
TAFVRB
TAF
KVRB 281128Z 2812/2912 32011KT P6SM SKC
     FM281800 01014KT P6SM SCT035
     FM290000 01009KT P6SM FEW035=



000
FTUS42 KMLB 281100
TAFDAB
TAF
KDAB 281128Z 2812/2912 32009KT P6SM SKC
     FM281800 02013KT P6SM FEW035
     FM290000 36006KT P6SM SKC=



000
FTUS42 KMLB 281100
TAFSFB
TAF
KSFB 281128Z 2812/2912 35010KT P6SM SKC
     FM281800 02012KT P6SM FEW035
     FM290000 36005KT P6SM SKC=



000
FTUS42 KMLB 281100
TAFMCO
TAF
KMCO 281128Z 2812/2912 35011KT P6SM SKC
     FM281800 02012KT P6SM FEW035
     FM290000 36007KT P6SM SKC=



000
FTUS42 KMLB 281100
TAFMLB
TAF
KMLB 281128Z 2812/2912 33011KT P6SM SKC
     FM281800 01014KT P6SM SCT035
     FM290000 01010KT P6SM FEW035=



000
FTUS42 KMLB 280800 AAA
TAFMCO
TAF AMD
KMCO 280919Z 2809/2906 35010KT P6SM SKC
     FM281800 02012KT P6SM FEW035
     FM290000 01007KT P6SM SKC=



000
FTUS42 KMLB 280500
TAFDAB
TAF
KDAB 280528Z 2806/2906 33009KT P6SM SKC
     FM281800 02012KT P6SM FEW035
     FM290000 01006KT P6SM SKC=



000
FTUS42 KMLB 280500
TAFVRB
TAF
KVRB 280528Z 2806/2906 33010KT P6SM SKC
     FM281800 01014KT P6SM SCT035
     FM290000 01009KT P6SM FEW035=



000
FTUS42 KMLB 280500
TAFMLB
TAF
KMLB 280528Z 2806/2906 33010KT P6SM SKC
     FM281800 01014KT P6SM SCT035
     FM290000 01009KT P6SM FEW035=



000
FTUS42 KMLB 280500
TAFSFB
TAF
KSFB 280528Z 2806/2906 35010KT P6SM SKC
     FM281800 02012KT P6SM FEW035
     FM290000 01005KT P6SM SKC=



000
FTUS42 KMLB 280500
TAFMCO
TAF
KMCO 280528Z 2806/2906 35010KT P6SM SKC
     FM281800 02012KT P6SM FEW035
     FM290000 01007KT P6SM SKC=



000
FTUS42 KMLB 280200 AAA
TAFMCO
TAF AMD
KMCO 280251Z 2803/2824 34010KT P6SM SKC
     FM281400 36011KT P6SM SKC
     FM281800 01011KT P6SM FEW035=



000
FTUS42 KMLB 272300
TAFMCO
TAF
KMCO 272320Z 2800/2824 33011KT P6SM SKC
     FM281400 36011KT P6SM SKC
     FM281800 01011KT P6SM FEW035=



000
FTUS42 KMLB 272300
TAFMLB
TAF
KMLB 272320Z 2800/2824 33008KT P6SM SKC
     FM280600 34012KT P6SM SKC
     FM281800 01012KT P6SM SCT035=



000
FTUS42 KMLB 272300
TAFSFB
TAF
KSFB 272320Z 2800/2824 33009KT P6SM SKC
     FM281400 36010KT P6SM SKC
     FM281800 02010KT P6SM FEW035=



000
FTUS42 KMLB 272300
TAFVRB
TAF
KVRB 272320Z 2800/2824 33008KT P6SM SKC
     FM280600 34012KT P6SM SKC
     FM281800 36013KT P6SM SCT035=



000
FTUS42 KMLB 272300
TAFDAB
TAF
KDAB 272320Z 2800/2824 33009KT P6SM SKC
     FM281400 36010KT P6SM SKC
     FM281800 02012KT P6SM FEW035=



000
FTUS42 KMLB 272000 AAA
TAFMCO
TAF AMD
KMCO 272045Z 2721/2818 32011G17KT P6SM SKC
     FM272300 32008KT P6SM SKC=



000
FTUS42 KMLB 271700
TAFVRB
TAF
KVRB 271726Z 2718/2818 32013G21KT P6SM SKC
     FM272300 32010KT P6SM SKC=



000
FTUS42 KMLB 271700
TAFMCO
TAF
KMCO 271726Z 2718/2818 30013G20KT P6SM SKC
     FM272300 31008KT P6SM SKC=



000
FTUS42 KMLB 271700
TAFDAB
TAF
KDAB 271726Z 2718/2818 30013G21KT P6SM SKC
     FM272300 32009KT P6SM SKC=



000
FTUS42 KMLB 271700
TAFMLB
TAF
KMLB 271726Z 2718/2818 31013G20KT P6SM SKC
     FM272300 32010KT P6SM SKC=



000
FTUS42 KMLB 271700
TAFSFB
TAF
KSFB 271726Z 2718/2818 31013G20KT P6SM SKC
     FM272300 32008KT P6SM SKC=



000
FTUS42 KMLB 271500 AAA
TAFMCO
TAF AMD
KMCO 271510Z 2715/2812 29009KT P6SM SKC
     FM271600 31013G20KT P6SM SKC
     FM272300 32008KT P6SM SKC=



000
FTUS42 KMLB 271100
TAFSFB
TAF
KSFB 271131Z 2712/2812 28005KT P6SM SKC
     FM271600 31013G20KT P6SM FEW035
     FM272300 31008KT P6SM SKC=



000
FTUS42 KMLB 271100
TAFMCO
TAF
KMCO 271131Z 2712/2812 31008KT P6SM SKC
     FM271600 31013G20KT P6SM FEW035
     FM272300 32008KT P6SM SKC=



000
FTUS42 KMLB 271100
TAFVRB
TAF
KVRB 271131Z 2712/2812 31007KT P6SM SKC
     FM271600 32013G20KT P6SM FEW035
     FM272300 32008KT P6SM SKC=



000
FTUS42 KMLB 271100
TAFMLB
TAF
KMLB 271131Z 2712/2812 31004KT P6SM SKC
     FM271600 31013G20KT P6SM FEW035
     FM272300 32008KT P6SM SKC=



000
FTUS42 KMLB 271100
TAFDAB
TAF
KDAB 271131Z 2712/2812 24003KT P6SM SKC
     FM271600 30014G21KT P6SM FEW035
     FM272300 32008KT P6SM SKC=



000
FTUS42 KMLB 270900 AAA
TAFMCO
TAF AMD
KMCO 270913Z 2709/2806 31006KT P6SM SKC
     FM271600 31013G20KT P6SM FEW035
     FM272300 32008KT P6SM SKC=



000
FTUS42 KMLB 270500
TAFMLB
TAF
KMLB 270539Z 2706/2806 27004KT P6SM SKC
     FM271600 31013G20KT P6SM FEW035
     FM272300 32008KT P6SM SKC=



000
FTUS42 KMLB 270500
TAFVRB
TAF
KVRB 270539Z 2706/2806 30004KT P6SM SKC
     FM271600 32013G20KT P6SM FEW035
     FM272300 32008KT P6SM SKC=



000
FTUS42 KMLB 270500
TAFMCO
TAF
KMCO 270539Z 2706/2806 31003KT P6SM SKC
     FM271600 31014G21KT P6SM FEW035
     FM272300 31008KT P6SM SKC=



000
FTUS42 KMLB 270500
TAFSFB
TAF
KSFB 270539Z 2706/2806 29003KT P6SM SKC
     FM271600 31014G21KT P6SM FEW035
     FM272300 31008KT P6SM SKC=



000
FTUS42 KMLB 270500
TAFDAB
TAF
KDAB 270539Z 2706/2806 27005KT P6SM SKC
     FM271600 30014G21KT P6SM FEW035
     FM272300 32008KT P6SM SKC=



000
FTUS42 KMLB 270300 AAA
TAFMCO
TAF AMD
KMCO 270335Z 2704/2724 31006KT P6SM FEW250
     FM271600 31014G20KT P6SM FEW035=



000
FTUS42 KMLB 262300
TAFVRB
TAF
KVRB 262322Z 2700/2724 31006KT P6SM BKN250
     FM270300 31006KT P6SM SCT250
     FM271600 31013G20KT P6SM FEW035=



000
FTUS42 KMLB 262300
TAFSFB
TAF
KSFB 262322Z 2700/2724 29004KT P6SM FEW250
     FM271600 31014G20KT P6SM FEW035=



000
FTUS42 KMLB 262300
TAFDAB
TAF
KDAB 262322Z 2700/2724 28003KT P6SM FEW250
     FM271600 29013G19KT P6SM FEW035=



000
FTUS42 KMLB 262300
TAFMCO
TAF
KMCO 262322Z 2700/2724 31004KT P6SM SCT250
     FM271600 31014G20KT P6SM FEW035=



000
FTUS42 KMLB 262300
TAFMLB
TAF
KMLB 262322Z 2700/2724 31005KT P6SM SCT250
     FM271600 31014G20KT P6SM FEW035=



000
FTUS42 KMLB 262100 AAA
TAFMCO
TAF AMD
KMCO 262103Z 2621/2718 31009KT P6SM FEW150 SCT250
     FM270000 31007KT P6SM FEW250
     FM271600 30012KT P6SM SKC=



000
FTUS42 KMLB 261800 AAA
TAFVRB
TAF AMD
KVRB 261847Z 2619/2718 32010KT P6SM SCT013 SCT018 OVC100
     FM262200 31009KT P6SM SCT015 BKN120
     FM270000 31005KT P6SM SKC=



000
FTUS42 KMLB 261800 AAA
TAFMLB
TAF AMD
KMLB 261846Z 2619/2718 31012KT P6SM SCT013 SCT018 OVC100
     FM262200 31010KT P6SM SCT015 SCT150
     FM270000 32006KT P6SM SKC=



000
FTUS42 KMLB 261700
TAFMLB
TAF
KMLB 261721Z 2618/2718 31016G23KT P6SM BKN008 OVC110
     FM262200 31010KT P6SM SCT015 SCT150
     FM270000 32006KT P6SM SKC=



000
FTUS42 KMLB 261700
TAFSFB
TAF
KSFB 261721Z 2618/2718 31012G18KT P6SM FEW010 FEW045 BKN110
     FM262100 31010KT P6SM FEW015 SCT150
     FM270000 31006KT P6SM SKC=



000
FTUS42 KMLB 261700
TAFMCO
TAF
KMCO 261721Z 2618/2718 31012G18KT P6SM SCT015 BKN035 OVC110
     FM262100 32010KT P6SM FEW015 SCT150
     FM270000 31007KT P6SM SKC=



000
FTUS42 KMLB 261700
TAFVRB
TAF
KVRB 261721Z 2618/2718 32011KT P6SM BKN009 BKN015 OVC110
     FM262200 31009KT P6SM SCT015 BKN120
     FM270000 31005KT P6SM SKC=



000
FTUS42 KMLB 261700
TAFDAB
TAF
KDAB 261721Z 2618/2718 29012KT P6SM SCT015 OVC110
     FM262100 31010KT P6SM FEW015 SCT150
     FM270000 29004KT P6SM SKC=



000
FTUS42 KMLB 261600 AAB
TAFVRB
TAF AMD
KVRB 261609Z 2616/2712 31010KT P6SM SCT005 OVC040
      TEMPO 2616/2618 BKN005
     FM261800 32012G18KT P6SM SCT025 BKN040 OVC250
     FM262300 31010KT P6SM BKN250=



000
FTUS42 KMLB 261600 AAB
TAFVRB
TAF AMD
KVRB 261609Z 2616/2712 31010KT P6SM SCT005 OVC040
      TEMPO 2616/2618 BKN005
     FM261800 32012G18KT P6SM SCT025 BKN040 OVC250
     FM262300 31010KT P6SM BKN250=



000
FTUS42 KMLB 261500 AAB
TAFMCO
TAF AMD
KMCO 261523Z 2615/2712 32014G21KT P6SM BKN010 OVC025
      TEMPO 2615/2617 6SM -RA BR
     FM261800 31012G18KT P6SM SCT025 BKN050 OVC120
     FM262100 32010KT P6SM SKC=



000
FTUS42 KMLB 261300 AAA
TAFVRB
TAF AMD
KVRB 261319Z 2613/2712 26009KT P6SM VCSH SCT009 BKN040 OVC110
      TEMPO 2613/2616 VRB20G32KT 2SM +SHRA BKN020 BKN025
     FM261700 32012G18KT P6SM SCT025 BKN040 OVC250
     FM262300 31010KT P6SM BKN250=



000
FTUS42 KMLB 261300 AAA
TAFMLB
TAF AMD
KMLB 261318Z 2613/2712 32014G22KT P6SM VCSH BKN008 OVC017
      TEMPO 2613/2615 5SM -RA BR BKN020 BKN025
     FM261700 32016G24KT P6SM SCT025 BKN040 OVC250
     FM262100 31010KT P6SM SCT250=



000
FTUS42 KMLB 261300 AAA
TAFDAB
TAF AMD
KDAB 261316Z 2613/2712 33007KT P6SM VCSH SCT006 BKN015 OVC030
      TEMPO 2613/2615 3SM -RA BR BKN025 OVC035
     FM261500 30014G21KT P6SM BKN015 OVC040
     FM261800 29012G18KT P6SM SCT025 BKN050 OVC120
     FM262000 31010KT P6SM SKC=



000
FTUS42 KMLB 261300 AAA
TAFSFB
TAF AMD
KSFB 261314Z 2613/2712 33010KT P6SM VCSH BKN008 OVC020
      TEMPO 2613/2615 3SM -SHRA BR
     FM261500 31014G21KT P6SM BKN015 OVC040
     FM261800 31012G18KT P6SM SCT025 BKN050 OVC120
     FM262000 31010KT P6SM SKC=



000
FTUS42 KMLB 261300 AAA
TAFMCO
TAF AMD
KMCO 261313Z 2613/2712 33009KT P6SM VCSH BKN008 BKN025 OVC040
      TEMPO 2613/2614 4SM -RA BR
     FM261500 32014G21KT P6SM BKN015 OVC040
     FM261800 31012G18KT P6SM SCT025 BKN050 OVC120
     FM262100 32010KT P6SM SKC=



000
FTUS42 KMLB 261100
TAFVRB
TAF
KVRB 261135Z 2612/2712 22011KT 5SM TSRA SCT025CB BKN040 OVC080
      TEMPO 2612/2614 2SM +TSRA BKN020CB OVC040
     FM261400 28014G21KT P6SM BKN025 OVC050
     FM261700 32012G18KT P6SM SCT025 BKN040 OVC250
     FM262300 31010KT P6SM BKN250=



000
FTUS42 KMLB 261100
TAFMLB
TAF
KMLB 261135Z 2612/2712 20010KT P6SM VCSH FEW012 SCT060 OVC100
     FM261400 28014G22KT P6SM BKN025 OVC050
     FM261700 32016G24KT P6SM SCT025 BKN040 OVC250
     FM262100 31010KT P6SM SCT250=



000
FTUS42 KMLB 261100
TAFMCO
TAF
KMCO 261135Z 2612/2712 30017G24KT P6SM VCSH BKN006 OVC020
     FM261500 32014G21KT P6SM BKN015 OVC040
     FM261800 31012G18KT P6SM SCT025 BKN050 OVC120
     FM262100 32010KT P6SM SKC=



000
FTUS42 KMLB 261100
TAFDAB
TAF
KDAB 261135Z 2612/2712 31015G23KT P6SM VCSH BKN006 OVC020
     FM261500 30014G21KT P6SM BKN015 OVC040
     FM261800 29012G18KT P6SM SCT025 BKN050 OVC120
     FM262000 31010KT P6SM SKC=



000
FTUS42 KMLB 261100
TAFSFB
TAF
KSFB 261135Z 2612/2712 30017G26KT P6SM VCSH BKN006 OVC020
     FM261500 31014G21KT P6SM BKN015 OVC040
     FM261800 31012G18KT P6SM SCT025 BKN050 OVC120
     FM262000 31010KT P6SM SKC=



000
FTUS42 KMLB 261000 AAA
TAFMCO
TAF AMD
KMCO 261048Z 2611/2706 22010KT P6SM VCSH BKN006 OVC012
     FM261300 29013KT P6SM BKN008 OVC015
     FM261600 32014G21KT P6SM BKN015 OVC040
     FM261800 31012KT P6SM SCT025 BKN050 OVC120=



000
FTUS42 KMLB 260500
TAFMCO
TAF
KMCO 260539Z 2606/2706 15008KT P6SM VCSH FEW004 BKN015 OVC050
      TEMPO 2606/2608 5SM -RA BR BKN004 OVC010
     FM260800 21010KT P6SM VCSH BKN004 OVC012
     FM261000 26014G22KT P6SM VCSH BKN010 OVC020
     FM261300 31015G23KT P6SM BKN012 OVC025
     FM261600 32014G22KT P6SM BKN025 OVC060
     FM261900 31012KT P6SM SCT060 OVC250=



000
FTUS42 KMLB 260500
TAFMLB
TAF
KMLB 260539Z 2606/2706 16010KT P6SM VCTS FEW025CB SCT050 OVC100
      TEMPO 2606/2609 2SM TSRA BKN015CB OVC030
     FM260900 18012KT P6SM VCSH BKN012 OVC025
     FM261100 23013KT P6SM VCSH BKN025 OVC040
     FM261400 27015G22KT P6SM BKN025 OVC050
     FM261600 30015G23KT P6SM SCT025 BKN040 OVC250=



000
FTUS42 KMLB 260500
TAFSFB
TAF
KSFB 260539Z 2606/2706 18008KT P6SM VCSH FEW004 BKN025 OVC050
      TEMPO 2606/2608 5SM -RA BR BKN004 OVC010
     FM260800 22012KT P6SM VCSH BKN004 OVC012
     FM261000 27014G22KT P6SM VCSH BKN010 OVC020
     FM261300 31016G24KT P6SM BKN012 OVC025
     FM261600 32014G22KT P6SM BKN025 OVC060
     FM261900 30012KT P6SM SCT060 OVC250=



000
FTUS42 KMLB 260500
TAFVRB
TAF
KVRB 260539Z 2606/2706 16011KT P6SM FEW025 SCT050 OVC100
      TEMPO 2607/2610 2SM TSRA BKN015CB OVC030
     FM261000 18012KT P6SM VCSH BKN012 OVC025
     FM261200 21013KT P6SM VCSH BKN025 OVC040
     FM261400 27015G22KT P6SM BKN025 OVC050
     FM261600 31015G23KT P6SM SCT025 BKN040 OVC250=



000
FTUS42 KMLB 260500
TAFDAB
TAF
KDAB 260539Z 2606/2706 16008KT P6SM VCSH FEW006 SCT040 OVC100
      TEMPO 2606/2608 5SM -RA BR BKN004 OVC010
     FM260800 21012KT P6SM VCSH BKN004 OVC012
     FM261000 25015G23KT P6SM VCSH BKN010 OVC020
     FM261200 30017G25KT P6SM BKN012 OVC025
     FM261400 32014G22KT P6SM BKN025 OVC060
     FM261600 30012KT P6SM SCT030 BKN060 OVC250=



000
FTUS42 KMLB 260500 AAA
TAFDAB
TAF AMD
KDAB 260503Z 2605/2624 15011KT 5SM TSRA SCT006 BKN025CB OVC100
      TEMPO 2605/2607 5SM -RA BR BKN005 OVC010
     FM260700 23008KT 3SM BR VCSH BKN004 OVC010
     FM261100 28015G23KT P6SM BKN008 OVC015
     FM261300 32017G24KT P6SM SCT010 BKN020 OVC060
     FM261600 30012G20KT P6SM SCT030 BKN035 OVC080=



000
FTUS42 KMLB 260400 AAA
TAFSFB
TAF AMD
KSFB 260447Z 2605/2624 15010KT P6SM VCTS SCT008 BKN040CB OVC080
      TEMPO 2605/2607 5SM -RA BR BKN004 OVC010
     FM260700 22012KT P6SM VCSH BKN004 OVC012
     FM260900 25014G22KT P6SM VCSH BKN006 OVC015
     FM261100 28016G24KT P6SM BKN015 OVC030
     FM261300 31018G26KT P6SM SCT015 BKN025 OVC080
     FM261700 31014G22KT P6SM SCT030 BKN050 OVC100=



000
FTUS42 KMLB 260400 AAC
TAFMCO
TAF AMD
KMCO 260437Z 2605/2624 16005KT P6SM VCTS SCT004 BKN015CB OVC100
      TEMPO 2605/2607 5SM -RA BR BKN004 OVC010
     FM260700 20010KT P6SM VCSH BKN008 OVC015
     FM260900 24014G22KT P6SM VCSH BKN010 OVC020
     FM261100 27015G23KT P6SM BKN015 OVC030
     FM261300 32016G24KT P6SM SCT015 BKN025 OVC080
     FM261600 32014G22KT P6SM SCT030 BKN050 OVC100=



000
FTUS42 KMLB 260300 AAB
TAFMCO
TAF AMD
KMCO 260349Z 2604/2624 01011KT P6SM VCTS SCT007CB BKN015 OVC035
      TEMPO 2604/2606 1SM RA BKN005 OVC020
     FM260600 19010KT P6SM VCSH BKN010
     FM260900 25016G25KT P6SM VCSH BKN025
     FM261400 33011KT P6SM SCT020 BKN040=



000
FTUS42 KMLB 260300 AAB
TAFMCO
TAF AMD
KMCO 260349Z 2604/2624 01011KT P6SM VCTS SCT007CB BKN015 OVC035
      TEMPO 2604/2606 1SM RA BKN005 OVC020
     FM260600 19010KT P6SM VCSH BKN010
     FM260900 25016G25KT P6SM VCSH BKN025
     FM261400 33011KT P6SM SCT020 BKN040=



000
FTUS42 KMLB 260200 AAA
TAFMCO
TAF AMD
KMCO 260257Z 2603/2624 34011KT P6SM VCTS SCT007CB BKN015 OVC035
      TEMPO 2603/2606 1SM RA BKN005 OVC020
     FM260600 19010KT P6SM VCSH BKN010
     FM260900 25016G25KT P6SM VCSH BKN025
     FM261400 33011KT P6SM SCT020 BKN040=



000
FTUS42 KMLB 252300
TAFDAB
TAF
KDAB 252331Z 2600/2624 33005KT 3SM RA SCT005 BKN015 OVC040
      TEMPO 2600/2602 1SM RA BKN010 OVC020
     FM260500 19010KT P6SM VCSH BKN010
     FM260900 32016G24KT P6SM VCSH BKN025=



000
FTUS42 KMLB 252300
TAFMCO
TAF
KMCO 252331Z 2600/2624 34011KT P6SM VCSH SCT007 BKN015 OVC035
      TEMPO 2600/2601 -RA BKN007
     FM260500 19010KT P6SM VCSH BKN010
     FM260900 32016G24KT P6SM VCSH BKN025=



000
FTUS42 KMLB 252300
TAFSFB
TAF
KSFB 252331Z 2600/2624 36010KT P6SM VCSH SCT007 BKN015 OVC035
      TEMPO 2600/2601 -RA BKN007
     FM260500 19010KT P6SM VCSH BKN010
     FM260900 32016G24KT P6SM VCSH BKN025=



000
FTUS42 KMLB 252300
TAFVRB
TAF
KVRB 252331Z 2600/2624 17012KT P6SM VCTS FEW030CB BKN120 OVC200
     FM260200 17010KT P6SM VCSH BKN020
     FM261100 23012KT P6SM VCSH BKN020=



000
FTUS42 KMLB 252300
TAFMLB
TAF
KMLB 252331Z 2600/2624 22007KT 5SM RA VCTS SCT030CB BKN040 OVC060
      TEMPO 2600/2601 2SM RA BKN020 OVC040
     FM260200 17010KT P6SM VCSH BKN020
     FM261000 23012KT P6SM VCSH BKN020=



000
FTUS42 KMLB 252100 AAC
TAFDAB
TAF AMD
KDAB 252125Z 2521/2618 05007KT 3SM TSRA BR SCT003 BKN020CB OVC035
      TEMPO 2521/2522 1SM TSRA BR BKN003 BKN012CB OVC020
     FM260200 19010KT P6SM VCSH BKN010
     FM260900 32016G24KT P6SM VCSH BKN025=



000
FTUS42 KMLB 252100 AAB
TAFSFB
TAF AMD
KSFB 252122Z 2521/2618 16011KT P6SM VCSH BKN025 OVC035
      TEMPO 2521/2523 3SM +TSRA BKN015CB OVC020
     FM260200 19010KT P6SM VCSH BKN010
     FM260900 32016G24KT P6SM VCSH BKN025=



000
FTUS42 KMLB 252100 AAC
TAFMCO
TAF AMD
KMCO 252120Z 2521/2618 15011KT P6SM VCSH FEW015 BKN029 OVC040
      TEMPO 2522/2524 3SM TSRA BKN015CB OVC020
     FM260200 19010KT P6SM VCSH BKN010
     FM260900 32016G24KT P6SM VCSH BKN025=



000
FTUS42 KMLB 252000 AAB
TAFMCO
TAF AMD
KMCO 252059Z 2521/2618 15007KT 3SM -TSRA BR FEW005 FEW015CB BKN025
      TEMPO 2521/2524 1SM +TSRA BKN015CB OVC020
     FM260200 19010KT P6SM VCSH BKN010
     FM260900 32016G24KT P6SM VCSH BKN025=



000
FTUS42 KMLB 252000 AAB
TAFDAB
TAF AMD
KDAB 252005Z 2520/2618 05007KT 3SM TSRA BR SCT003 BKN020CB OVC035
      TEMPO 2520/2523 1SM TSRA BR BKN003 BKN012CB OVC020
     FM260200 19010KT P6SM VCSH BKN010
     FM260900 32016G24KT P6SM VCSH BKN025=



000
FTUS42 KMLB 252000 AAA
TAFSFB
TAF AMD
KSFB 252002Z 2520/2618 VRB06KT 3SM SHRA BR SCT015 BKN025 OVC035
      TEMPO 2520/2523 1SM +TSRA BKN015CB OVC020
     FM260200 19010KT P6SM VCSH BKN010
     FM260900 32016G24KT P6SM VCSH BKN025=



000
FTUS42 KMLB 252000 AAA
TAFMCO
TAF AMD
KMCO 252000Z 2520/2618 VRB06KT 3SM SHRA BR FEW008 SCT015 OVC045
      TEMPO 2520/2524 1SM TSRA BKN015CB OVC020
     FM260200 19010KT P6SM VCSH BKN010
     FM260900 32016G24KT P6SM VCSH BKN025=



000
FTUS42 KMLB 251800 AAA
TAFDAB
TAF AMD
KDAB 251817Z 2518/2618 15007KT 5SM TSRA BR SCT005 BKN020CB OVC060
      TEMPO 2518/2520 3SM TSRA BKN005 OVC030CB
     FM260200 19010KT P6SM VCSH BKN010
     FM260900 32016G24KT P6SM VCSH BKN025=



000
FTUS42 KMLB 251700 RRA
TAFMLB
TAF
KMLB 251753Z 2518/2618 18010KT P6SM VCSH SCT015 SCT030 OVC050
      TEMPO 2518/2520 3SM SHRA BR BKN020
     FM260200 17010KT P6SM VCSH BKN020
     FM261000 23012KT P6SM VCSH BKN020=



000
FTUS42 KMLB 251700 RRA
TAFVRB
TAF
KVRB 251753Z 2518/2618 16011KT P6SM OVC050
     FM251900 17009KT P6SM VCTS BKN030CB
      TEMPO 2519/2521 3SM TSRA BKN020CB
     FM260200 17010KT P6SM VCSH BKN020
     FM261100 23012KT P6SM VCSH BKN020=



000
FTUS42 KMLB 251700 RRA
TAFDAB
TAF
KDAB 251741Z 2518/2618 15007KT 5SM SHRA BR SCT015 BKN035 OVC060
      TEMPO 2518/2520 3SM TSRA BKN020CB
     FM260200 19010KT P6SM VCSH BKN010
     FM260900 32016G24KT P6SM VCSH BKN025=



000
FTUS42 KMLB 251700
TAFSFB
TAF
KSFB 251740Z 2518/2618 VRB06KT 5SM SHRA BR SCT015 SCT020 BKN030
      TEMPO 2518/2520 3SM TSRA BKN020CB
     FM260200 19010KT P6SM VCSH BKN010
     FM260900 32016G24KT P6SM VCSH BKN025=



000
FTUS42 KMLB 251700
TAFMCO
TAF
KMCO 251740Z 2518/2618 29006KT 5SM SHRA BR SCT015 SCT020 BKN030
      TEMPO 2518/2520 3SM TSRA BKN020CB
     FM260200 19010KT P6SM VCSH BKN010
     FM260900 32016G24KT P6SM VCSH BKN025=



    US Dept of Commerce
    National Oceanic and Atmospheric Administration
    National Weather Service
    1325 East West Highway
    Silver Spring, MD 20910
    Page Author: NWS Internet Services Team
Disclaimer
Information Quality
Credits
Glossary
Privacy Policy
Freedom of Information Act (FOIA)
About Us
Career Opportunities